Time;durP1;ratioP1;P1;durP2;ratioP2;P2;SDS_P1;SDS_P2;PMS_P1;PMS_P2;Temp;Humidity;BMP_temperature;BMP_pressure;BME280_temperature;BME280_humidity;BME280_pressure;Samples;Min_cycle;Max_cycle;Signal;HPM_P1;HPM_P2
2022/03/19 00:00:16;;;;;;;;;;;6.00;99.90;;;;;;5129375;27;19982;-80
2022/03/19 00:02:43;;;;;;;;;;;6.00;99.90;;;;;;5135484;27;19993;-80
2022/03/19 00:05:09;;;;;;;;;;;5.90;99.90;;;;;;5136526;27;19929;-80
2022/03/19 00:07:40;;;;;;;;;;;5.90;99.90;;;;;;5140546;27;19923;-80
2022/03/19 00:10:08;;;;;;;;;;;5.90;99.90;;;;;;5138822;27;19923;-80
2022/03/19 00:12:40;;;;;;;;;;;5.80;99.90;;;;;;5141456;27;20306;-80
2022/03/19 00:15:10;;;;;;;;;;;5.80;99.90;;;;;;5136430;27;19931;-81
2022/03/19 00:17:36;;;;;;;;;;;5.70;99.90;;;;;;5119937;27;19931;-80
2022/03/19 00:20:01;;;;;;;;;;;5.70;99.90;;;;;;5120367;27;19923;-80
2022/03/19 00:22:27;;;;;;;;;;;5.70;99.90;;;;;;5125212;27;20324;-80
2022/03/19 00:24:53;;;;;;;;;;;5.60;99.90;;;;;;5156577;27;19951;-80
2022/03/19 00:27:18;;;;;;;;;;;5.60;99.90;;;;;;5140897;27;19923;-80
2022/03/19 00:29:44;;;;;;;;;;;5.60;99.90;;;;;;5135417;27;19923;-80
2022/03/19 00:32:10;;;;;;;;;;;5.60;99.90;;;;;;5152239;27;19976;-80
2022/03/19 00:34:35;;;;;;;;;;;5.50;99.90;;;;;;5124738;27;20375;-80
2022/03/19 00:37:01;;;;;;;;;;;5.50;99.90;;;;;;5156980;27;19990;-80
2022/03/19 00:39:26;;;;;;;;;;;5.50;99.90;;;;;;5147404;27;19923;-81
2022/03/19 00:41:55;;;;;;;;;;;5.50;99.90;;;;;;5165652;27;20665;-80
2022/03/19 00:44:21;;;;;;;;;;;5.50;99.90;;;;;;5152667;27;19927;-80
2022/03/19 00:46:47;;;;;;;;;;;5.40;99.90;;;;;;5157817;27;20358;-80
2022/03/19 00:49:13;;;;;;;;;;;5.50;99.90;;;;;;5156863;27;19982;-80
2022/03/19 00:51:39;;;;;;;;;;;5.40;99.90;;;;;;5137999;27;19923;-80
2022/03/19 00:54:05;;;;;;;;;;;5.40;99.90;;;;;;5143443;27;20348;-80
2022/03/19 00:56:31;;;;;;;;;;;5.40;99.90;;;;;;5140127;27;20018;-80
2022/03/19 00:58:57;;;;;;;;;;;5.40;99.90;;;;;;5123172;27;19933;-80
2022/03/19 01:01:23;;;;;;;;;;;5.40;99.90;;;;;;5156857;27;19923;-80
2022/03/19 01:03:48;;;;;;;;;;;5.40;99.90;;;;;;5126141;27;19923;-80
2022/03/19 01:06:14;;;;;;;;;;;5.30;99.90;;;;;;5134072;27;19966;-79
2022/03/19 01:08:39;;;;;;;;;;;5.40;99.90;;;;;;5139609;27;20009;-80
2022/03/19 01:11:05;;;;;;;;;;;5.30;99.90;;;;;;5154964;27;19927;-80
2022/03/19 01:13:30;;;;;;;;;;;5.30;99.90;;;;;;5110555;27;19931;-81
2022/03/19 01:15:57;;;;;;;;;;;5.20;99.90;;;;;;5152982;27;19922;-81
2022/03/19 01:18:23;;;;;;;;;;;5.20;99.90;;;;;;5121434;27;19929;-80
2022/03/19 01:20:48;;;;;;;;;;;5.20;99.90;;;;;;5130510;27;20286;-80
2022/03/19 01:23:14;;;;;;;;;;;5.20;99.90;;;;;;5133497;27;19923;-80
2022/03/19 01:25:40;;;;;;;;;;;5.30;99.90;;;;;;5121938;27;19923;-86
2022/03/19 01:28:05;;;;;;;;;;;5.10;99.90;;;;;;5119211;27;19944;-80
2022/03/19 01:30:31;;;;;;;;;;;5.20;99.90;;;;;;5139800;27;20017;-80
2022/03/19 01:32:56;;;;;;;;;;;5.20;99.90;;;;;;5142672;27;19985;-80
2022/03/19 01:35:22;;;;;;;;;;;5.20;99.90;;;;;;5136935;27;19923;-79
2022/03/19 01:37:48;;;;;;;;;;;5.20;99.90;;;;;;5120955;27;20318;-79
2022/03/19 01:40:15;;;;;;;;;;;5.10;99.90;;;;;;5119438;27;19958;-80
2022/03/19 01:42:42;;;;;;;;;;;5.10;99.90;;;;;;5132769;27;19934;-82
2022/03/19 01:45:12;;;;;;;;;;;5.10;99.90;;;;;;5137666;27;20025;-80
2022/03/19 01:47:37;;;;;;;;;;;5.10;99.90;;;;;;5138626;27;19931;-80
2022/03/19 01:50:03;;;;;;;;;;;5.10;99.90;;;;;;5141872;27;19927;-80
2022/03/19 01:52:29;;;;;;;;;;;5.10;99.90;;;;;;5140409;27;19923;-79
2022/03/19 01:54:55;;;;;;;;;;;5.10;99.90;;;;;;5148176;27;19930;-80
2022/03/19 01:57:22;;;;;;;;;;;5.00;99.90;;;;;;5159939;27;19929;-80
2022/03/19 01:59:48;;;;;;;;;;;5.10;99.90;;;;;;5139814;27;20320;-80
2022/03/19 02:02:13;;;;;;;;;;;5.10;99.90;;;;;;5140400;27;19931;-80
2022/03/19 02:04:40;;;;;;;;;;;5.10;99.90;;;;;;5123671;27;19931;-80
2022/03/19 02:07:09;;;;;;;;;;;5.00;99.90;;;;;;5133972;27;20693;-80
2022/03/19 02:09:35;;;;;;;;;;;5.10;99.90;;;;;;5132592;27;19973;-79
2022/03/19 02:12:02;;;;;;;;;;;5.10;99.90;;;;;;5137217;27;19930;-79
2022/03/19 02:14:27;;;;;;;;;;;5.00;99.90;;;;;;5140516;27;20096;-80
2022/03/19 02:16:53;;;;;;;;;;;5.10;99.90;;;;;;5122572;27;19923;-80
2022/03/19 02:19:19;;;;;;;;;;;5.00;99.90;;;;;;5129189;27;19930;-80
2022/03/19 02:21:46;;;;;;;;;;;5.10;99.90;;;;;;5156326;27;19923;-84
2022/03/19 02:26:56;;;;;;;;;;;5.10;99.90;;;;;;5152475;27;19934;-80
2022/03/19 02:29:22;;;;;;;;;;;5.20;99.90;;;;;;5129521;27;19931;-79
2022/03/19 02:31:49;;;;;;;;;;;5.10;99.90;;;;;;5157879;27;19927;-80
2022/03/19 02:34:14;;;;;;;;;;;5.10;99.90;;;;;;5159297;27;19922;-79
2022/03/19 02:36:40;;;;;;;;;;;5.10;99.90;;;;;;5154479;27;19930;-80
2022/03/19 02:39:13;;;;;;;;;;;5.10;99.90;;;;;;5140082;27;19983;-79
2022/03/19 02:41:46;;;;;;;;;;;5.10;99.90;;;;;;5128076;27;20252;-80
2022/03/19 02:44:12;;;;;;;;;;;5.10;99.90;;;;;;5139394;27;20256;-80
2022/03/19 02:46:39;;;;;;;;;;;5.00;99.90;;;;;;5134052;27;19927;-80
2022/03/19 02:49:05;;;;;;;;;;;5.10;99.90;;;;;;5138910;27;20337;-79
2022/03/19 02:51:32;;;;;;;;;;;5.10;99.90;;;;;;5142089;27;20017;-79
2022/03/19 02:53:58;;;;;;;;;;;5.10;99.90;;;;;;5153685;27;20313;-79
2022/03/19 02:56:23;;;;;;;;;;;5.10;99.90;;;;;;5158348;27;19923;-80
2022/03/19 02:58:49;;;;;;;;;;;5.10;99.90;;;;;;5121176;27;19923;-80
2022/03/19 03:01:14;;;;;;;;;;;5.10;99.90;;;;;;5139261;27;19978;-79
2022/03/19 03:03:41;;;;;;;;;;;5.10;99.90;;;;;;5135053;27;19930;-80
2022/03/19 03:06:06;;;;;;;;;;;5.00;99.90;;;;;;5129111;27;19923;-80
2022/03/19 03:08:32;;;;;;;;;;;5.10;99.90;;;;;;5138952;27;19923;-80
2022/03/19 03:10:58;;;;;;;;;;;5.10;99.90;;;;;;5159025;27;19979;-80
2022/03/19 03:13:24;;;;;;;;;;;5.10;99.90;;;;;;5138388;27;20360;-80
2022/03/19 03:15:50;;;;;;;;;;;5.10;99.90;;;;;;5121538;27;19926;-86
2022/03/19 03:18:15;;;;;;;;;;;5.10;99.90;;;;;;5135547;27;19929;-80
2022/03/19 03:20:41;;;;;;;;;;;5.10;99.90;;;;;;5157977;27;19927;-79
2022/03/19 03:23:06;;;;;;;;;;;5.10;99.90;;;;;;5152978;27;19930;-80
2022/03/19 03:25:32;;;;;;;;;;;5.00;99.90;;;;;;5121543;27;19923;-80
2022/03/19 03:27:58;;;;;;;;;;;4.90;99.90;;;;;;5127666;27;20402;-80
2022/03/19 03:30:24;;;;;;;;;;;5.00;99.90;;;;;;5141887;27;20021;-79
2022/03/19 03:32:49;;;;;;;;;;;5.00;99.90;;;;;;5141690;27;20350;-80
2022/03/19 03:35:15;;;;;;;;;;;5.00;99.90;;;;;;5137520;27;19923;-80
2022/03/19 03:37:40;;;;;;;;;;;5.00;99.90;;;;;;5121045;27;19923;-79
2022/03/19 03:40:07;;;;;;;;;;;5.00;99.90;;;;;;5138466;27;19923;-80
2022/03/19 03:42:33;;;;;;;;;;;5.00;99.90;;;;;;5140847;27;20375;-80
2022/03/19 03:44:58;;;;;;;;;;;5.00;99.90;;;;;;5141442;27;19923;-80
2022/03/19 03:47:27;;;;;;;;;;;5.00;99.90;;;;;;5139674;27;19929;-80
2022/03/19 03:49:53;;;;;;;;;;;5.00;99.90;;;;;;5137753;27;19923;-84
2022/03/19 03:52:20;;;;;;;;;;;5.00;99.90;;;;;;5153610;27;19945;-80
2022/03/19 03:54:45;;;;;;;;;;;5.10;99.90;;;;;;5158396;27;19934;-79
2022/03/19 03:57:11;;;;;;;;;;;4.90;99.90;;;;;;5145619;27;19923;-80
2022/03/19 03:59:37;;;;;;;;;;;4.90;99.90;;;;;;5122350;27;19975;-79
2022/03/19 04:02:02;;;;;;;;;;;4.90;99.90;;;;;;5130375;27;20363;-79
2022/03/19 04:04:28;;;;;;;;;;;4.90;99.90;;;;;;5140967;27;19974;-80
2022/03/19 04:06:53;;;;;;;;;;;4.90;99.90;;;;;;5140882;27;19923;-80
2022/03/19 04:09:19;;;;;;;;;;;4.90;99.90;;;;;;5140891;27;19929;-80
2022/03/19 04:11:45;;;;;;;;;;;4.90;99.90;;;;;;5136497;27;20367;-80
2022/03/19 04:14:10;;;;;;;;;;;4.90;99.90;;;;;;5147498;27;19989;-79
2022/03/19 04:16:37;;;;;;;;;;;4.90;99.90;;;;;;5137884;27;19923;-79
2022/03/19 04:19:03;;;;;;;;;;;4.90;99.90;;;;;;5119759;27;20018;-80
2022/03/19 04:21:28;;;;;;;;;;;4.80;99.90;;;;;;5153997;27;19970;-80
2022/03/19 04:23:54;;;;;;;;;;;4.90;99.90;;;;;;5152097;27;19923;-79
2022/03/19 04:26:20;;;;;;;;;;;4.90;99.90;;;;;;5157839;27;19971;-81
2022/03/19 04:28:45;;;;;;;;;;;4.80;99.90;;;;;;5143697;27;19931;-82
2022/03/19 04:31:11;;;;;;;;;;;4.80;99.90;;;;;;5142684;27;20021;-83
2022/03/19 04:33:36;;;;;;;;;;;4.80;99.90;;;;;;5135619;27;19969;-81
2022/03/19 04:38:46;;;;;;;;;;;4.70;99.90;;;;;;5157645;27;19978;-81
2022/03/19 04:41:13;;;;;;;;;;;4.70;99.90;;;;;;5138092;27;19927;-81
2022/03/19 04:43:38;;;;;;;;;;;4.70;99.90;;;;;;5154750;27;19933;-81
2022/03/19 04:46:04;;;;;;;;;;;4.70;99.90;;;;;;5138825;27;20328;-81
2022/03/19 04:48:30;;;;;;;;;;;4.60;99.90;;;;;;5139403;27;19927;-81
2022/03/19 04:50:56;;;;;;;;;;;4.70;99.90;;;;;;5139512;27;19927;-81
2022/03/19 04:53:23;;;;;;;;;;;4.60;99.90;;;;;;5126765;27;20383;-81
2022/03/19 04:55:49;;;;;;;;;;;4.60;99.90;;;;;;5136449;27;19934;-81
2022/03/19 04:58:15;;;;;;;;;;;4.50;99.90;;;;;;5136647;27;19923;-81
2022/03/19 05:00:41;;;;;;;;;;;4.60;99.90;;;;;;5154206;27;20026;-81
2022/03/19 05:03:07;;;;;;;;;;;4.50;99.90;;;;;;5146987;27;20054;-81
2022/03/19 05:05:33;;;;;;;;;;;4.50;99.90;;;;;;5144558;27;19923;-81
2022/03/19 05:07:58;;;;;;;;;;;4.50;99.90;;;;;;5136849;27;19927;-81
2022/03/19 05:13:09;;;;;;;;;;;4.40;99.90;;;;;;5155421;27;19926;-81
2022/03/19 05:15:35;;;;;;;;;;;4.40;99.90;;;;;;5138446;27;19930;-81
2022/03/19 05:18:01;;;;;;;;;;;4.30;99.90;;;;;;5132803;27;19927;-83
2022/03/19 05:20:26;;;;;;;;;;;4.30;99.90;;;;;;5101992;27;19929;-81
2022/03/19 05:22:52;;;;;;;;;;;4.30;99.90;;;;;;5138710;27;19923;-81
2022/03/19 05:25:17;;;;;;;;;;;4.30;99.90;;;;;;5157508;27;20435;-81
2022/03/19 05:27:43;;;;;;;;;;;4.30;99.90;;;;;;5148264;27;19923;-81
2022/03/19 05:30:09;;;;;;;;;;;4.30;99.90;;;;;;5139740;27;19979;-81
2022/03/19 05:32:35;;;;;;;;;;;4.30;99.90;;;;;;5147839;27;19923;-81
2022/03/19 05:35:01;;;;;;;;;;;4.30;99.90;;;;;;5139437;27;19927;-82
2022/03/19 05:37:27;;;;;;;;;;;4.30;99.90;;;;;;5141289;27;19945;-81
2022/03/19 05:39:55;;;;;;;;;;;4.30;99.90;;;;;;5160763;27;20399;-81
2022/03/19 05:42:21;;;;;;;;;;;4.30;99.90;;;;;;5143682;27;19922;-81
2022/03/19 05:44:47;;;;;;;;;;;4.20;99.90;;;;;;5155958;27;20406;-81
2022/03/19 05:47:13;;;;;;;;;;;4.20;99.90;;;;;;5105969;27;19962;-80
2022/03/19 05:49:40;;;;;;;;;;;4.30;99.90;;;;;;5130126;27;19971;-81
2022/03/19 05:52:06;;;;;;;;;;;4.20;99.90;;;;;;5122967;27;19935;-84
2022/03/19 05:54:31;;;;;;;;;;;4.20;99.90;;;;;;5139544;27;20363;-81
2022/03/19 05:56:57;;;;;;;;;;;4.20;99.90;;;;;;5166175;27;19922;-81
2022/03/19 05:59:23;;;;;;;;;;;4.20;99.90;;;;;;5141944;27;20066;-81
2022/03/19 06:01:49;;;;;;;;;;;4.20;99.90;;;;;;5122867;27;19923;-81
2022/03/19 06:04:15;;;;;;;;;;;4.10;99.90;;;;;;5141222;27;19923;-81
2022/03/19 06:06:41;;;;;;;;;;;4.10;99.90;;;;;;5139030;27;19934;-81
2022/03/19 06:09:07;;;;;;;;;;;4.10;99.90;;;;;;5129574;27;19923;-83
2022/03/19 06:11:32;;;;;;;;;;;4.20;99.90;;;;;;5156907;27;20374;-81
2022/03/19 06:13:58;;;;;;;;;;;4.10;99.90;;;;;;5147328;27;20022;-81
2022/03/19 06:16:24;;;;;;;;;;;4.20;99.90;;;;;;5141745;27;19930;-81
2022/03/19 06:18:52;;;;;;;;;;;4.20;99.90;;;;;;5135395;27;20401;-81
2022/03/19 06:21:19;;;;;;;;;;;4.20;99.90;;;;;;5153488;27;19927;-81
2022/03/19 06:23:47;;;;;;;;;;;4.20;99.90;;;;;;5131879;27;19923;-80
2022/03/19 06:26:13;;;;;;;;;;;4.20;99.90;;;;;;5125208;27;20442;-81
2022/03/19 06:28:39;;;;;;;;;;;4.20;99.90;;;;;;5133439;27;19923;-81
2022/03/19 06:31:05;;;;;;;;;;;4.20;99.90;;;;;;5152411;27;20435;-81
2022/03/19 06:33:30;;;;;;;;;;;4.20;99.90;;;;;;5149277;27;20018;-81
2022/03/19 06:38:40;;;;;;;;;;;4.30;99.90;;;;;;5137642;27;19929;-82
2022/03/19 06:41:06;;;;;;;;;;;4.30;99.90;;;;;;5128737;27;19982;-81
2022/03/19 06:43:32;;;;;;;;;;;4.40;99.90;;;;;;5132324;27;20006;-81
2022/03/19 06:45:58;;;;;;;;;;;4.50;99.90;;;;;;5154144;27;19931;-81
2022/03/19 06:48:24;;;;;;;;;;;4.50;99.90;;;;;;5149988;27;19926;-81
2022/03/19 06:50:50;;;;;;;;;;;4.50;99.90;;;;;;5130770;27;19923;-81
2022/03/19 06:53:16;;;;;;;;;;;4.60;99.90;;;;;;5114696;27;19929;-81
2022/03/19 06:55:41;;;;;;;;;;;4.70;99.90;;;;;;5137523;27;19975;-81
2022/03/19 06:58:07;;;;;;;;;;;4.80;99.90;;;;;;5145117;27;19923;-81
2022/03/19 07:00:33;;;;;;;;;;;4.80;99.90;;;;;;5108261;27;20006;-81
2022/03/19 07:02:58;;;;;;;;;;;4.80;99.90;;;;;;5129476;27;19992;-80
2022/03/19 07:05:25;;;;;;;;;;;4.90;99.90;;;;;;5142331;27;19963;-81
2022/03/19 07:07:51;;;;;;;;;;;5.00;99.90;;;;;;5143241;27;19927;-81
2022/03/19 07:10:18;;;;;;;;;;;5.00;99.90;;;;;;5156668;27;19974;-82
2022/03/19 07:12:54;;;;;;;;;;;5.10;99.90;;;;;;5137013;27;19985;-81
2022/03/19 07:15:21;;;;;;;;;;;5.20;99.90;;;;;;5132045;27;19970;-82
2022/03/19 07:17:48;;;;;;;;;;;5.30;99.90;;;;;;5141598;27;19923;-82
2022/03/19 07:20:14;;;;;;;;;;;5.40;99.90;;;;;;5121243;27;19923;-85
2022/03/19 07:22:59;;;;;;;;;;;5.50;99.90;;;;;;5139696;27;19919;-83
2022/03/19 07:25:26;;;;;;;;;;;5.60;99.90;;;;;;5158437;27;20015;-81
2022/03/19 07:27:53;;;;;;;;;;;5.70;99.90;;;;;;5126140;27;19923;-80
2022/03/19 07:30:18;;;;;;;;;;;5.70;99.90;;;;;;5148228;27;20413;-79
2022/03/19 07:32:45;;;;;;;;;;;5.80;99.90;;;;;;5127557;27;19966;-79
2022/03/19 07:35:12;;;;;;;;;;;5.90;99.90;;;;;;5142277;27;19930;-79
2022/03/19 07:37:40;;;;;;;;;;;6.00;99.90;;;;;;5163785;27;20013;-80
2022/03/19 07:40:06;;;;;;;;;;;6.10;99.90;;;;;;5144110;27;20370;-79
2022/03/19 07:42:32;;;;;;;;;;;6.20;99.90;;;;;;5138136;27;19976;-80
2022/03/19 07:44:58;;;;;;;;;;;6.30;99.90;;;;;;5140486;27;19935;-82
2022/03/19 07:47:23;;;;;;;;;;;6.30;99.90;;;;;;5133475;27;19923;-80
2022/03/19 07:49:49;;;;;;;;;;;6.40;99.90;;;;;;5120977;27;20434;-79
2022/03/19 07:52:14;;;;;;;;;;;6.60;99.90;;;;;;5120716;27;19924;-79
2022/03/19 07:54:40;;;;;;;;;;;6.60;99.90;;;;;;5120080;27;19930;-80
2022/03/19 07:57:06;;;;;;;;;;;6.70;99.90;;;;;;5137962;27;19934;-80
2022/03/19 07:59:32;;;;;;;;;;;6.80;99.90;;;;;;5120562;27;19923;-80
2022/03/19 08:01:58;;;;;;;;;;;6.90;99.90;;;;;;5120374;27;19933;-81
2022/03/19 08:04:23;;;;;;;;;;;7.00;99.90;;;;;;5137320;27;19948;-82
2022/03/19 08:06:53;;;;;;;;;;;7.00;99.90;;;;;;5137198;27;19971;-82
2022/03/19 08:09:19;;;;;;;;;;;7.20;99.90;;;;;;5120416;27;20260;-84
2022/03/19 08:11:45;;;;;;;;;;;7.30;99.90;;;;;;5132483;27;19923;-83
2022/03/19 08:14:12;;;;;;;;;;;7.40;99.90;;;;;;5145944;27;19931;-82
2022/03/19 08:16:37;;;;;;;;;;;7.60;99.90;;;;;;5133097;27;20101;-85
2022/03/19 08:19:03;;;;;;;;;;;7.60;99.90;;;;;;5112806;27;19954;-83
2022/03/19 08:21:29;;;;;;;;;;;7.70;99.90;;;;;;5155438;27;19922;-83
2022/03/19 08:23:54;;;;;;;;;;;7.70;99.90;;;;;;5140120;27;19992;-83
2022/03/19 08:26:20;;;;;;;;;;;7.80;99.90;;;;;;5152230;27;19923;-85
2022/03/19 08:28:45;;;;;;;;;;;7.90;99.90;;;;;;5140345;27;19922;-83
2022/03/19 08:31:11;;;;;;;;;;;7.90;99.90;;;;;;5140434;27;19980;-84
2022/03/19 08:33:36;;;;;;;;;;;8.00;99.90;;;;;;5157241;27;20271;-83
2022/03/19 08:36:02;;;;;;;;;;;8.10;99.90;;;;;;5140160;27;19966;-83
2022/03/19 08:41:12;;;;;;;;;;;8.20;99.90;;;;;;5122389;27;19923;-83
2022/03/19 08:43:37;;;;;;;;;;;8.20;99.90;;;;;;5119741;27;19927;-83
2022/03/19 08:46:03;;;;;;;;;;;8.30;99.90;;;;;;5119588;27;20030;-82
2022/03/19 08:48:29;;;;;;;;;;;8.40;99.90;;;;;;5119699;27;20290;-83
2022/03/19 08:51:39;;;;;;;;;;;8.40;99.90;;;;;;5133119;27;19930;-83
2022/03/19 08:53:40;;;;;;;;;;;8.50;99.90;;;;;;5156932;27;19922;-83
2022/03/19 08:56:05;;;;;;;;;;;8.60;99.90;;;;;;5140122;27;19930;-83
2022/03/19 08:58:31;;;;;;;;;;;8.70;99.90;;;;;;5129373;27;20377;-84
2022/03/19 09:00:57;;;;;;;;;;;8.70;99.90;;;;;;5136717;27;19930;-83
2022/03/19 09:03:26;;;;;;;;;;;8.90;99.90;;;;;;5136506;27;20018;-84
2022/03/19 09:05:52;;;;;;;;;;;8.90;99.90;;;;;;5119739;27;20022;-82
2022/03/19 09:08:17;;;;;;;;;;;9.00;99.90;;;;;;5124950;27;20022;-83
2022/03/19 09:10:43;;;;;;;;;;;9.10;99.90;;;;;;5120091;27;19938;-82
2022/03/19 09:13:09;;;;;;;;;;;9.10;99.90;;;;;;5136400;27;19972;-83
2022/03/19 09:15:34;;;;;;;;;;;9.10;99.90;;;;;;5119098;27;20009;-84
2022/03/19 09:18:00;;;;;;;;;;;9.20;99.90;;;;;;5150543;27;19922;-83
2022/03/19 09:20:25;;;;;;;;;;;9.30;99.90;;;;;;5157148;27;19926;-84
2022/03/19 09:22:51;;;;;;;;;;;9.40;99.90;;;;;;5139824;27;20367;-84
2022/03/19 09:25:17;;;;;;;;;;;9.40;99.90;;;;;;5140002;27;20290;-83
2022/03/19 09:27:42;;;;;;;;;;;9.50;99.90;;;;;;5139298;27;20355;-84
2022/03/19 09:30:09;;;;;;;;;;;9.50;99.90;;;;;;5139635;27;20359;-82
2022/03/19 09:32:35;;;;;;;;;;;9.60;99.90;;;;;;5156991;27;19923;-83
2022/03/19 09:35:01;;;;;;;;;;;9.70;99.90;;;;;;5139052;27;19923;-84
2022/03/19 09:37:26;;;;;;;;;;;9.70;99.90;;;;;;5147677;27;19923;-87
2022/03/19 09:39:52;;;;;;;;;;;9.80;99.90;;;;;;5118951;27;20002;-83
2022/03/19 09:42:18;;;;;;;;;;;9.90;99.90;;;;;;5136404;27;19934;-83
2022/03/19 09:44:44;;;;;;;;;;;9.90;99.90;;;;;;5118413;27;20056;-83
2022/03/19 09:47:10;;;;;;;;;;;10.00;99.90;;;;;;5119646;27;19942;-84
2022/03/19 09:49:35;;;;;;;;;;;10.10;99.90;;;;;;5116519;27;19930;-83
2022/03/19 09:52:02;;;;;;;;;;;10.20;99.90;;;;;;5119113;27;19931;-84
2022/03/19 09:54:28;;;;;;;;;;;10.30;99.90;;;;;;5135914;27;20286;-84
2022/03/19 09:56:54;;;;;;;;;;;10.30;99.90;;;;;;5119041;27;19923;-86
2022/03/19 09:59:22;;;;;;;;;;;10.30;99.90;;;;;;5118715;27;19975;-83
2022/03/19 10:01:48;;;;;;;;;;;10.40;99.90;;;;;;5118856;27;20305;-84
2022/03/19 10:04:17;;;;;;;;;;;10.50;99.90;;;;;;5119061;27;19930;-84
2022/03/19 10:09:42;;;;;;;;;;;10.70;99.90;;;;;;5155979;27;19979;-84
2022/03/19 10:12:15;;;;;;;;;;;10.80;99.90;;;;;;5160591;27;19922;-84
2022/03/19 10:14:41;;;;;;;;;;;10.90;99.90;;;;;;5142368;27;20370;-85
2022/03/19 10:17:06;;;;;;;;;;;10.90;99.90;;;;;;5160571;27;19933;-84
2022/03/19 10:19:32;;;;;;;;;;;11.10;99.90;;;;;;5121626;27;19930;-86
2022/03/19 10:22:06;;;;;;;;;;;11.10;99.90;;;;;;5139344;27;19927;-85
2022/03/19 10:24:35;;;;;;;;;;;11.20;99.90;;;;;;5122210;27;20014;-87
2022/03/19 10:27:01;;;;;;;;;;;11.30;99.90;;;;;;5124592;27;20286;-84
2022/03/19 10:29:28;;;;;;;;;;;11.40;99.90;;;;;;5122061;27;19923;-84
2022/03/19 10:31:58;;;;;;;;;;;11.40;99.90;;;;;;5138807;27;19974;-84
2022/03/19 10:34:24;;;;;;;;;;;11.50;99.90;;;;;;5123241;27;19923;-84
2022/03/19 10:36:49;;;;;;;;;;;11.60;98.90;;;;;;5138906;27;20363;-84
2022/03/19 10:39:18;;;;;;;;;;;11.70;99.90;;;;;;5122021;27;19930;-84
2022/03/19 10:41:44;;;;;;;;;;;11.80;99.90;;;;;;5121713;27;20321;-83
2022/03/19 10:44:10;;;;;;;;;;;11.80;99.90;;;;;;5139164;27;20018;-85
2022/03/19 10:46:37;;;;;;;;;;;11.90;99.90;;;;;;5104724;27;20351;-85
2022/03/19 10:49:03;;;;;;;;;;;12.00;99.90;;;;;;5122485;27;19985;-84
2022/03/19 10:51:31;;;;;;;;;;;12.00;99.90;;;;;;5121565;27;20363;-84
2022/03/19 10:53:58;;;;;;;;;;;12.10;99.90;;;;;;5138458;27;19923;-84
2022/03/19 10:56:24;;;;;;;;;;;12.10;99.90;;;;;;5121839;27;19923;-83
2022/03/19 10:58:49;;;;;;;;;;;12.20;99.90;;;;;;5109483;27;19930;-90
2022/03/19 11:01:15;;;;;;;;;;;12.20;99.90;;;;;;5131342;27;19946;-87
2022/03/19 11:03:42;;;;;;;;;;;12.40;99.90;;;;;;5110882;27;19931;-86
2022/03/19 11:06:09;;;;;;;;;;;12.50;99.70;;;;;;5147470;27;19972;-84
2022/03/19 11:08:38;;;;;;;;;;;12.50;97.90;;;;;;5138252;27;19923;-85
2022/03/19 11:11:15;;;;;;;;;;;12.70;98.20;;;;;;5151185;27;19922;-85
2022/03/19 11:13:43;;;;;;;;;;;12.80;96.90;;;;;;5157762;27;19930;-85
2022/03/19 11:16:10;;;;;;;;;;;12.80;95.90;;;;;;5151749;27;19923;-85
2022/03/19 11:18:37;;;;;;;;;;;12.90;98.10;;;;;;5147794;27;19962;-83
2022/03/19 11:21:03;;;;;;;;;;;13.00;99.90;;;;;;5123182;27;20331;-84
2022/03/19 11:23:38;;;;;;;;;;;13.10;99.90;;;;;;5129221;27;20027;-84
2022/03/19 11:26:04;;;;;;;;;;;13.30;99.90;;;;;;5140939;27;19923;-86
2022/03/19 11:28:30;;;;;;;;;;;13.20;99.90;;;;;;5155102;27;19982;-86
2022/03/19 11:31:09;;;;;;;;;;;13.20;99.90;;;;;;5130893;27;19922;-86
2022/03/19 11:33:36;;;;;;;;;;;13.30;99.90;;;;;;5128265;27;19938;-86
2022/03/19 11:36:10;;;;;;;;;;;13.40;99.90;;;;;;5140214;27;19931;-87
2022/03/19 11:38:40;;;;;;;;;;;13.50;99.90;;;;;;5137238;27;19927;-86
2022/03/19 11:41:16;;;;;;;;;;;13.70;99.90;;;;;;5123601;27;20013;-86
2022/03/19 11:43:42;;;;;;;;;;;13.80;99.90;;;;;;5130269;27;20278;-85
2022/03/19 11:46:11;;;;;;;;;;;14.00;99.90;;;;;;5103573;27;20018;-87
2022/03/19 11:48:36;;;;;;;;;;;14.10;99.90;;;;;;5120571;27;19930;-87
2022/03/19 11:51:18;;;;;;;;;;;14.30;99.90;;;;;;5137766;27;19923;-87
2022/03/19 11:53:51;;;;;;;;;;;14.50;99.90;;;;;;5124067;27;19963;-87
2022/03/19 11:56:19;;;;;;;;;;;14.60;99.90;;;;;;5120231;27;19970;-87
2022/03/19 11:58:46;;;;;;;;;;;14.80;99.90;;;;;;5136631;27;19946;-87
2022/03/19 12:01:11;;;;;;;;;;;14.80;99.80;;;;;;5127105;27;19975;-85
2022/03/19 12:03:56;;;;;;;;;;;14.90;99.80;;;;;;5119553;27;19927;-86
2022/03/19 12:06:44;;;;;;;;;;;14.70;98.40;;;;;;5119709;27;19984;-87
2022/03/19 12:09:10;;;;;;;;;;;14.80;97.30;;;;;;5135831;27;19923;-83
2022/03/19 12:11:36;;;;;;;;;;;14.90;97.60;;;;;;5119179;27;19927;-83
2022/03/19 12:14:10;;;;;;;;;;;15.00;97.00;;;;;;5137646;27;20430;-83
2022/03/19 12:16:36;;;;;;;;;;;15.10;97.60;;;;;;5136589;27;19923;-81
2022/03/19 12:19:02;;;;;;;;;;;15.10;96.30;;;;;;5137606;27;19984;-83
2022/03/19 12:21:32;;;;;;;;;;;15.10;96.00;;;;;;5122818;27;19926;-84
2022/03/19 12:24:11;;;;;;;;;;;15.30;95.40;;;;;;5156808;27;19933;-83
2022/03/19 12:26:39;;;;;;;;;;;15.40;95.10;;;;;;5156450;27;19922;-84
2022/03/19 12:29:06;;;;;;;;;;;15.50;94.50;;;;;;5153078;27;19926;-84
2022/03/19 12:31:36;;;;;;;;;;;15.40;94.80;;;;;;5135867;27;20342;-83
2022/03/19 12:34:02;;;;;;;;;;;15.30;94.00;;;;;;5130519;27;20422;-84
2022/03/19 12:36:28;;;;;;;;;;;15.20;94.50;;;;;;5147261;27;19931;-84
2022/03/19 12:38:59;;;;;;;;;;;15.20;95.20;;;;;;5136367;27;19923;-84
2022/03/19 12:41:28;;;;;;;;;;;15.20;95.40;;;;;;5137843;27;20479;-82
2022/03/19 12:43:58;;;;;;;;;;;15.10;96.00;;;;;;5121160;27;20375;-82
2022/03/19 12:46:25;;;;;;;;;;;15.00;96.60;;;;;;5133486;27;19923;-84
2022/03/19 12:48:51;;;;;;;;;;;15.00;95.90;;;;;;5119075;27;20362;-84
2022/03/19 12:51:23;;;;;;;;;;;14.80;96.30;;;;;;5125077;27;19934;-84
2022/03/19 12:53:49;;;;;;;;;;;14.70;97.10;;;;;;5133429;27;19923;-84
2022/03/19 12:56:22;;;;;;;;;;;14.60;96.30;;;;;;5126332;27;19926;-84
2022/03/19 12:58:49;;;;;;;;;;;14.50;97.10;;;;;;5130797;27;19983;-84
2022/03/19 13:01:15;;;;;;;;;;;14.50;97.80;;;;;;5124922;27;20380;-84
2022/03/19 13:03:41;;;;;;;;;;;14.50;97.30;;;;;;5121625;27;19927;-82
2022/03/19 13:06:10;;;;;;;;;;;14.40;97.90;;;;;;5139697;27;19930;-83
2022/03/19 13:08:43;;;;;;;;;;;14.30;97.80;;;;;;5120504;27;19978;-87
2022/03/19 13:11:12;;;;;;;;;;;14.30;98.70;;;;;;5139048;27;19934;-83
2022/03/19 13:13:38;;;;;;;;;;;14.10;98.60;;;;;;5127363;27;19931;-82
2022/03/19 13:16:04;;;;;;;;;;;14.10;99.20;;;;;;5110863;27;19934;-83
2022/03/19 13:18:30;;;;;;;;;;;14.00;99.70;;;;;;5146140;27;19931;-84
2022/03/19 13:21:07;;;;;;;;;;;13.90;99.90;;;;;;5143831;27;19926;-82
2022/03/19 13:23:34;;;;;;;;;;;13.80;99.90;;;;;;5141755;27;19931;-83
2022/03/19 13:26:00;;;;;;;;;;;13.70;99.90;;;;;;5144327;27;20399;-85
2022/03/19 13:28:25;;;;;;;;;;;13.80;99.90;;;;;;5134280;27;19923;-83
2022/03/19 13:30:51;;;;;;;;;;;14.00;99.90;;;;;;5124482;27;19934;-83
2022/03/19 13:33:17;;;;;;;;;;;14.10;99.90;;;;;;5132017;27;19931;-85
2022/03/19 13:35:47;;;;;;;;;;;14.30;99.90;;;;;;5119636;27;19923;-81
2022/03/19 13:38:17;;;;;;;;;;;14.50;99.90;;;;;;5127633;27;20016;-81
2022/03/19 13:40:43;;;;;;;;;;;14.70;99.90;;;;;;5118869;27;20283;-82
2022/03/19 13:43:09;;;;;;;;;;;14.80;99.40;;;;;;5138125;27;19931;-92
2022/03/19 13:45:35;;;;;;;15.00;3.80;;;15.10;99.90;;;;;;5155848;27;20794;-91
2022/03/19 13:48:02;;;;;;;13.38;3.42;;;15.70;98.60;;;;;;5138998;27;20050;-93
2022/03/19 13:50:28;;;;;;;17.25;3.90;;;15.40;99.10;;;;;;5121574;27;20055;-80
2022/03/19 13:52:56;;;;;;;16.35;4.03;;;15.30;99.60;;;;;;5101731;27;20039;-79
2022/03/19 13:55:21;;;;;;;24.40;4.43;;;15.30;99.40;;;;;;5119136;27;20379;-86
2022/03/19 13:57:50;;;;;;;17.08;3.85;;;15.40;99.30;;;;;;5124625;27;20039;-91
2022/03/19 14:00:18;;;;;;;15.45;3.88;;;15.80;99.80;;;;;;5140374;27;20058;-89
2022/03/19 14:02:56;;;;;;;17.63;3.70;;;16.40;99.50;;;;;;5138820;27;20115;-81
2022/03/19 14:05:36;;;;;;;17.02;4.00;;;17.20;98.30;;;;;;5137215;27;20051;-80
2022/03/19 14:08:07;;;;;;;13.65;3.60;;;17.90;97.90;;;;;;5148875;27;20047;-81
2022/03/19 14:10:38;;;;;;;15.75;4.00;;;18.50;96.00;;;;;;5140875;27;20096;-79
2022/03/19 14:13:05;;;;;;;14.40;3.97;;;18.70;94.60;;;;;;5124343;27;20047;-82
2022/03/19 14:15:44;;;;;;;19.65;4.57;;;19.10;94.60;;;;;;5139367;27;20050;-81
2022/03/19 14:18:29;;;;;;;18.25;4.15;;;19.40;91.70;;;;;;5139289;27;20058;-78
2022/03/19 14:20:59;;;;;;;17.25;4.00;;;19.70;90.50;;;;;;5143817;27;20039;-79
2022/03/19 14:23:25;;;;;;;18.33;4.25;;;20.10;90.80;;;;;;5148318;27;20063;-80
2022/03/19 14:25:52;;;;;;;18.92;4.10;;;20.20;89.00;;;;;;5139859;27;20100;-81
2022/03/19 14:28:20;;;;;;;16.98;3.00;;;20.20;86.60;;;;;;5134500;27;20559;-80
2022/03/19 14:30:46;;;;;;;12.57;3.40;;;20.40;84.20;;;;;;5144185;27;20088;-82
2022/03/19 14:33:12;;;;;;;13.98;3.72;;;20.30;81.20;;;;;;5121748;27;20119;-80